sensor_id;sensor_type;location;lat;lon;timestamp;P1;durP1;ratioP1;P2;durP2;ratioP2
46116;SDS011;32591;48.102;11.772;2022-11-20T00:00:22;2.47;;;1.63;;
46116;SDS011;32591;48.102;11.772;2022-11-20T00:02:49;3.67;;;2.55;;
46116;SDS011;32591;48.102;11.772;2022-11-20T00:05:16;4.63;;;2.08;;
46116;SDS011;32591;48.102;11.772;2022-11-20T00:07:43;2.67;;;1.65;;
46116;SDS011;32591;48.102;11.772;2022-11-20T00:10:10;3.08;;;1.50;;
46116;SDS011;32591;48.102;11.772;2022-11-20T00:12:37;2.78;;;1.70;;
46116;SDS011;32591;48.102;11.772;2022-11-20T00:15:04;3.90;;;1.85;;
46116;SDS011;32591;48.102;11.772;2022-11-20T00:17:34;4.15;;;1.85;;
46116;SDS011;32591;48.102;11.772;2022-11-20T00:20:01;2.97;;;1.60;;
46116;SDS011;32591;48.102;11.772;2022-11-20T00:22:28;3.90;;;1.70;;
46116;SDS011;32591;48.102;11.772;2022-11-20T00:24:55;3.05;;;1.73;;
46116;SDS011;32591;48.102;11.772;2022-11-20T00:27:22;3.42;;;1.75;;
46116;SDS011;32591;48.102;11.772;2022-11-20T00:29:50;3.65;;;1.75;;
46116;SDS011;32591;48.102;11.772;2022-11-20T00:32:17;2.95;;;1.48;;
46116;SDS011;32591;48.102;11.772;2022-11-20T00:34:45;3.35;;;1.83;;
46116;SDS011;32591;48.102;11.772;2022-11-20T00:37:12;2.70;;;1.83;;
46116;SDS011;32591;48.102;11.772;2022-11-20T00:39:39;2.78;;;1.77;;
46116;SDS011;32591;48.102;11.772;2022-11-20T00:42:06;2.92;;;1.95;;
46116;SDS011;32591;48.102;11.772;2022-11-20T00:44:33;3.38;;;1.55;;
46116;SDS011;32591;48.102;11.772;2022-11-20T00:47:00;2.53;;;1.77;;
46116;SDS011;32591;48.102;11.772;2022-11-20T00:49:27;5.05;;;2.30;;
46116;SDS011;32591;48.102;11.772;2022-11-20T00:51:55;3.78;;;2.08;;
46116;SDS011;32591;48.102;11.772;2022-11-20T00:54:22;5.82;;;2.17;;
46116;SDS011;32591;48.102;11.772;2022-11-20T00:56:49;3.75;;;1.95;;
46116;SDS011;32591;48.102;11.772;2022-11-20T00:59:19;5.75;;;2.88;;
46116;SDS011;32591;48.102;11.772;2022-11-20T01:01:46;2.95;;;1.70;;
46116;SDS011;32591;48.102;11.772;2022-11-20T01:04:13;4.18;;;1.90;;
46116;SDS011;32591;48.102;11.772;2022-11-20T01:06:40;3.55;;;1.83;;
46116;SDS011;32591;48.102;11.772;2022-11-20T01:09:09;5.47;;;2.03;;
46116;SDS011;32591;48.102;11.772;2022-11-20T01:11:41;5.55;;;2.05;;
46116;SDS011;32591;48.102;11.772;2022-11-20T01:14:11;3.42;;;1.83;;
46116;SDS011;32591;48.102;11.772;2022-11-20T01:16:41;4.22;;;1.92;;
46116;SDS011;32591;48.102;11.772;2022-11-20T01:19:12;2.67;;;1.45;;
46116;SDS011;32591;48.102;11.772;2022-11-20T01:21:41;3.67;;;1.52;;
46116;SDS011;32591;48.102;11.772;2022-11-20T01:24:12;2.63;;;1.58;;
46116;SDS011;32591;48.102;11.772;2022-11-20T01:26:43;2.90;;;1.27;;
46116;SDS011;32591;48.102;11.772;2022-11-20T01:29:12;4.53;;;1.88;;
46116;SDS011;32591;48.102;11.772;2022-11-20T01:31:42;3.00;;;1.70;;
46116;SDS011;32591;48.102;11.772;2022-11-20T01:34:10;2.90;;;1.60;;
46116;SDS011;32591;48.102;11.772;2022-11-20T01:36:40;3.67;;;1.75;;
46116;SDS011;32591;48.102;11.772;2022-11-20T01:39:10;4.00;;;1.90;;
46116;SDS011;32591;48.102;11.772;2022-11-20T01:41:41;4.60;;;1.75;;
46116;SDS011;32591;48.102;11.772;2022-11-20T01:44:47;4.30;;;1.95;;
46116;SDS011;32591;48.102;11.772;2022-11-20T01:47:20;3.40;;;1.85;;
46116;SDS011;32591;48.102;11.772;2022-11-20T01:49:54;2.38;;;1.58;;
46116;SDS011;32591;48.102;11.772;2022-11-20T01:52:27;3.22;;;1.77;;
46116;SDS011;32591;48.102;11.772;2022-11-20T01:55:00;2.97;;;1.70;;
46116;SDS011;32591;48.102;11.772;2022-11-20T01:57:32;3.55;;;1.67;;
46116;SDS011;32591;48.102;11.772;2022-11-20T02:00:03;2.90;;;1.70;;
46116;SDS011;32591;48.102;11.772;2022-11-20T02:02:35;3.03;;;2.13;;
46116;SDS011;32591;48.102;11.772;2022-11-20T02:05:05;3.72;;;1.63;;
46116;SDS011;32591;48.102;11.772;2022-11-20T02:07:40;3.67;;;2.45;;
46116;SDS011;32591;48.102;11.772;2022-11-20T02:10:08;3.50;;;1.88;;
46116;SDS011;32591;48.102;11.772;2022-11-20T02:12:35;2.42;;;1.67;;
46116;SDS011;32591;48.102;11.772;2022-11-20T02:15:32;2.15;;;1.50;;
46116;SDS011;32591;48.102;11.772;2022-11-20T02:17:59;2.85;;;1.88;;
46116;SDS011;32591;48.102;11.772;2022-11-20T02:20:27;2.60;;;1.52;;
46116;SDS011;32591;48.102;11.772;2022-11-20T02:22:54;2.63;;;1.70;;
46116;SDS011;32591;48.102;11.772;2022-11-20T02:25:28;3.53;;;2.03;;
46116;SDS011;32591;48.102;11.772;2022-11-20T02:27:56;3.22;;;2.17;;
46116;SDS011;32591;48.102;11.772;2022-11-20T02:30:23;2.95;;;1.90;;
46116;SDS011;32591;48.102;11.772;2022-11-20T02:32:50;4.90;;;2.20;;
46116;SDS011;32591;48.102;11.772;2022-11-20T02:38:09;4.10;;;1.90;;
46116;SDS011;32591;48.102;11.772;2022-11-20T02:40:37;2.83;;;1.85;;
46116;SDS011;32591;48.102;11.772;2022-11-20T02:43:04;4.10;;;1.95;;
46116;SDS011;32591;48.102;11.772;2022-11-20T02:45:31;4.28;;;1.63;;
46116;SDS011;32591;48.102;11.772;2022-11-20T02:47:58;2.83;;;1.90;;
46116;SDS011;32591;48.102;11.772;2022-11-20T02:50:26;5.30;;;2.00;;
46116;SDS011;32591;48.102;11.772;2022-11-20T02:52:53;3.92;;;2.22;;
46116;SDS011;32591;48.102;11.772;2022-11-20T02:55:20;4.80;;;2.00;;
46116;SDS011;32591;48.102;11.772;2022-11-20T02:57:48;4.05;;;2.45;;
46116;SDS011;32591;48.102;11.772;2022-11-20T03:00:15;4.65;;;2.03;;
46116;SDS011;32591;48.102;11.772;2022-11-20T03:02:43;3.80;;;2.33;;
46116;SDS011;32591;48.102;11.772;2022-11-20T03:07:36;4.28;;;2.30;;
46116;SDS011;32591;48.102;11.772;2022-11-20T03:10:04;5.63;;;2.28;;
46116;SDS011;32591;48.102;11.772;2022-11-20T03:12:32;3.88;;;2.13;;
46116;SDS011;32591;48.102;11.772;2022-11-20T03:17:27;2.47;;;1.80;;
46116;SDS011;32591;48.102;11.772;2022-11-20T03:19:54;3.97;;;1.92;;
46116;SDS011;32591;48.102;11.772;2022-11-20T03:24:48;3.53;;;2.00;;
46116;SDS011;32591;48.102;11.772;2022-11-20T03:27:16;3.15;;;1.95;;
46116;SDS011;32591;48.102;11.772;2022-11-20T03:29:43;2.85;;;1.80;;
46116;SDS011;32591;48.102;11.772;2022-11-20T03:32:11;3.28;;;2.10;;
46116;SDS011;32591;48.102;11.772;2022-11-20T03:34:38;3.63;;;2.40;;
46116;SDS011;32591;48.102;11.772;2022-11-20T03:37:05;3.40;;;2.10;;
46116;SDS011;32591;48.102;11.772;2022-11-20T03:39:32;3.75;;;2.35;;
46116;SDS011;32591;48.102;11.772;2022-11-20T03:41:59;7.20;;;2.10;;
46116;SDS011;32591;48.102;11.772;2022-11-20T03:44:26;3.55;;;2.30;;
46116;SDS011;32591;48.102;11.772;2022-11-20T03:46:53;3.47;;;2.15;;
46116;SDS011;32591;48.102;11.772;2022-11-20T03:49:22;4.00;;;2.03;;
46116;SDS011;32591;48.102;11.772;2022-11-20T03:51:48;4.28;;;2.70;;
46116;SDS011;32591;48.102;11.772;2022-11-20T03:54:15;2.95;;;2.28;;
46116;SDS011;32591;48.102;11.772;2022-11-20T03:56:43;4.53;;;2.20;;
46116;SDS011;32591;48.102;11.772;2022-11-20T04:01:37;3.03;;;2.13;;
46116;SDS011;32591;48.102;11.772;2022-11-20T04:04:04;4.53;;;2.17;;
46116;SDS011;32591;48.102;11.772;2022-11-20T04:06:34;3.33;;;1.90;;
46116;SDS011;32591;48.102;11.772;2022-11-20T04:09:03;4.10;;;2.17;;
46116;SDS011;32591;48.102;11.772;2022-11-20T04:11:32;4.60;;;2.20;;
46116;SDS011;32591;48.102;11.772;2022-11-20T04:14:01;3.58;;;2.42;;
46116;SDS011;32591;48.102;11.772;2022-11-20T04:16:30;5.00;;;2.00;;
46116;SDS011;32591;48.102;11.772;2022-11-20T04:19:00;3.40;;;2.30;;
46116;SDS011;32591;48.102;11.772;2022-11-20T04:21:29;3.60;;;2.15;;
46116;SDS011;32591;48.102;11.772;2022-11-20T04:23:57;3.17;;;1.85;;
46116;SDS011;32591;48.102;11.772;2022-11-20T04:26:26;2.60;;;1.80;;
46116;SDS011;32591;48.102;11.772;2022-11-20T04:28:54;6.53;;;2.17;;
46116;SDS011;32591;48.102;11.772;2022-11-20T04:31:22;4.90;;;2.15;;
46116;SDS011;32591;48.102;11.772;2022-11-20T04:33:51;3.88;;;2.25;;
46116;SDS011;32591;48.102;11.772;2022-11-20T04:36:19;3.13;;;2.25;;
46116;SDS011;32591;48.102;11.772;2022-11-20T04:38:50;4.25;;;1.88;;
46116;SDS011;32591;48.102;11.772;2022-11-20T04:41:20;3.60;;;1.95;;
46116;SDS011;32591;48.102;11.772;2022-11-20T04:43:51;4.07;;;1.80;;
46116;SDS011;32591;48.102;11.772;2022-11-20T04:46:24;3.15;;;1.95;;
46116;SDS011;32591;48.102;11.772;2022-11-20T04:48:52;3.03;;;2.00;;
46116;SDS011;32591;48.102;11.772;2022-11-20T04:51:20;2.63;;;2.20;;
46116;SDS011;32591;48.102;11.772;2022-11-20T04:53:46;6.53;;;2.20;;
46116;SDS011;32591;48.102;11.772;2022-11-20T04:56:14;3.38;;;1.80;;
46116;SDS011;32591;48.102;11.772;2022-11-20T04:58:43;3.90;;;1.85;;
46116;SDS011;32591;48.102;11.772;2022-11-20T05:01:11;4.43;;;2.15;;
46116;SDS011;32591;48.102;11.772;2022-11-20T05:03:40;3.42;;;2.33;;
46116;SDS011;32591;48.102;11.772;2022-11-20T05:06:08;3.83;;;1.75;;
46116;SDS011;32591;48.102;11.772;2022-11-20T05:08:37;4.43;;;2.30;;
46116;SDS011;32591;48.102;11.772;2022-11-20T05:11:05;3.72;;;2.05;;
46116;SDS011;32591;48.102;11.772;2022-11-20T05:13:33;2.90;;;1.63;;
46116;SDS011;32591;48.102;11.772;2022-11-20T05:16:02;3.28;;;2.00;;
46116;SDS011;32591;48.102;11.772;2022-11-20T05:18:30;4.80;;;1.85;;
46116;SDS011;32591;48.102;11.772;2022-11-20T05:20:58;3.65;;;2.20;;
46116;SDS011;32591;48.102;11.772;2022-11-20T05:23:25;3.13;;;2.00;;
46116;SDS011;32591;48.102;11.772;2022-11-20T05:25:54;4.35;;;2.35;;
46116;SDS011;32591;48.102;11.772;2022-11-20T05:28:22;4.20;;;1.80;;
46116;SDS011;32591;48.102;11.772;2022-11-20T05:30:50;2.28;;;1.75;;
46116;SDS011;32591;48.102;11.772;2022-11-20T05:35:46;2.13;;;1.83;;
46116;SDS011;32591;48.102;11.772;2022-11-20T05:38:13;3.00;;;1.90;;
46116;SDS011;32591;48.102;11.772;2022-11-20T05:40:40;3.10;;;1.80;;
46116;SDS011;32591;48.102;11.772;2022-11-20T05:43:07;4.22;;;1.95;;
46116;SDS011;32591;48.102;11.772;2022-11-20T05:48:01;3.03;;;1.58;;
46116;SDS011;32591;48.102;11.772;2022-11-20T05:50:30;3.38;;;1.90;;
46116;SDS011;32591;48.102;11.772;2022-11-20T05:52:57;3.35;;;1.90;;
46116;SDS011;32591;48.102;11.772;2022-11-20T05:55:25;3.95;;;1.90;;
46116;SDS011;32591;48.102;11.772;2022-11-20T05:57:52;3.80;;;2.08;;
46116;SDS011;32591;48.102;11.772;2022-11-20T06:00:19;2.35;;;1.60;;
46116;SDS011;32591;48.102;11.772;2022-11-20T06:02:46;4.43;;;1.90;;
46116;SDS011;32591;48.102;11.772;2022-11-20T06:05:14;2.65;;;1.85;;
46116;SDS011;32591;48.102;11.772;2022-11-20T06:07:42;2.42;;;1.88;;
46116;SDS011;32591;48.102;11.772;2022-11-20T06:10:09;4.15;;;2.33;;
46116;SDS011;32591;48.102;11.772;2022-11-20T06:12:36;2.97;;;1.90;;
46116;SDS011;32591;48.102;11.772;2022-11-20T06:15:03;2.85;;;2.08;;
46116;SDS011;32591;48.102;11.772;2022-11-20T06:17:32;3.67;;;2.15;;
46116;SDS011;32591;48.102;11.772;2022-11-20T06:19:59;3.63;;;2.10;;
46116;SDS011;32591;48.102;11.772;2022-11-20T06:22:26;2.55;;;1.98;;
46116;SDS011;32591;48.102;11.772;2022-11-20T06:24:54;4.32;;;2.45;;
46116;SDS011;32591;48.102;11.772;2022-11-20T06:27:21;4.45;;;2.42;;
46116;SDS011;32591;48.102;11.772;2022-11-20T06:29:48;3.10;;;1.95;;
46116;SDS011;32591;48.102;11.772;2022-11-20T06:32:16;3.55;;;2.30;;
46116;SDS011;32591;48.102;11.772;2022-11-20T06:34:42;4.47;;;2.17;;
46116;SDS011;32591;48.102;11.772;2022-11-20T06:39:36;4.13;;;2.50;;
46116;SDS011;32591;48.102;11.772;2022-11-20T06:42:05;2.63;;;1.80;;
46116;SDS011;32591;48.102;11.772;2022-11-20T06:44:32;3.38;;;2.35;;
46116;SDS011;32591;48.102;11.772;2022-11-20T06:46:59;3.65;;;2.08;;
46116;SDS011;32591;48.102;11.772;2022-11-20T06:49:26;7.95;;;3.40;;
46116;SDS011;32591;48.102;11.772;2022-11-20T06:51:53;4.50;;;2.20;;
46116;SDS011;32591;48.102;11.772;2022-11-20T06:54:20;3.75;;;1.98;;
46116;SDS011;32591;48.102;11.772;2022-11-20T06:56:47;3.75;;;2.70;;
46116;SDS011;32591;48.102;11.772;2022-11-20T06:59:15;3.75;;;2.28;;
46116;SDS011;32591;48.102;11.772;2022-11-20T07:01:42;4.55;;;2.80;;
46116;SDS011;32591;48.102;11.772;2022-11-20T07:06:36;5.28;;;2.13;;
46116;SDS011;32591;48.102;11.772;2022-11-20T07:11:29;4.60;;;2.47;;
46116;SDS011;32591;48.102;11.772;2022-11-20T07:13:56;2.90;;;2.00;;
46116;SDS011;32591;48.102;11.772;2022-11-20T07:16:25;4.78;;;2.58;;
46116;SDS011;32591;48.102;11.772;2022-11-20T07:18:52;3.72;;;2.20;;
46116;SDS011;32591;48.102;11.772;2022-11-20T07:21:19;3.95;;;2.67;;
46116;SDS011;32591;48.102;11.772;2022-11-20T07:23:46;3.90;;;2.33;;
46116;SDS011;32591;48.102;11.772;2022-11-20T07:28:39;3.95;;;2.17;;
46116;SDS011;32591;48.102;11.772;2022-11-20T07:31:10;4.00;;;2.97;;
46116;SDS011;32591;48.102;11.772;2022-11-20T07:33:39;4.75;;;2.53;;
46116;SDS011;32591;48.102;11.772;2022-11-20T07:36:06;3.60;;;2.25;;
46116;SDS011;32591;48.102;11.772;2022-11-20T07:38:34;3.45;;;2.25;;
46116;SDS011;32591;48.102;11.772;2022-11-20T07:41:01;3.33;;;2.35;;
46116;SDS011;32591;48.102;11.772;2022-11-20T07:43:28;3.92;;;2.65;;
46116;SDS011;32591;48.102;11.772;2022-11-20T07:45:55;4.82;;;2.70;;
46116;SDS011;32591;48.102;11.772;2022-11-20T07:48:22;3.47;;;2.33;;
46116;SDS011;32591;48.102;11.772;2022-11-20T07:50:54;3.38;;;2.47;;
46116;SDS011;32591;48.102;11.772;2022-11-20T07:53:21;4.88;;;2.60;;
46116;SDS011;32591;48.102;11.772;2022-11-20T07:55:48;5.38;;;2.63;;
46116;SDS011;32591;48.102;11.772;2022-11-20T07:58:17;5.20;;;2.40;;
46116;SDS011;32591;48.102;11.772;2022-11-20T08:00:45;4.47;;;2.30;;
46116;SDS011;32591;48.102;11.772;2022-11-20T08:03:12;3.72;;;2.53;;
46116;SDS011;32591;48.102;11.772;2022-11-20T08:05:39;4.53;;;2.65;;
46116;SDS011;32591;48.102;11.772;2022-11-20T08:10:34;2.72;;;2.00;;
46116;SDS011;32591;48.102;11.772;2022-11-20T08:13:01;4.03;;;2.47;;
46116;SDS011;32591;48.102;11.772;2022-11-20T08:15:47;3.75;;;2.35;;
46116;SDS011;32591;48.102;11.772;2022-11-20T08:18:16;4.05;;;2.45;;
46116;SDS011;32591;48.102;11.772;2022-11-20T08:20:44;3.88;;;2.13;;
46116;SDS011;32591;48.102;11.772;2022-11-20T08:23:12;4.85;;;2.53;;
46116;SDS011;32591;48.102;11.772;2022-11-20T08:25:39;3.53;;;2.38;;
46116;SDS011;32591;48.102;11.772;2022-11-20T08:28:07;3.80;;;2.00;;
46116;SDS011;32591;48.102;11.772;2022-11-20T08:30:36;3.30;;;2.05;;
46116;SDS011;32591;48.102;11.772;2022-11-20T08:33:03;2.60;;;1.70;;
46116;SDS011;32591;48.102;11.772;2022-11-20T08:35:33;4.00;;;2.17;;
46116;SDS011;32591;48.102;11.772;2022-11-20T08:38:01;2.78;;;1.67;;
46116;SDS011;32591;48.102;11.772;2022-11-20T08:40:29;4.07;;;1.80;;
46116;SDS011;32591;48.102;11.772;2022-11-20T08:42:56;3.13;;;1.98;;
46116;SDS011;32591;48.102;11.772;2022-11-20T08:45:23;3.13;;;2.13;;
46116;SDS011;32591;48.102;11.772;2022-11-20T08:47:51;3.75;;;1.95;;
46116;SDS011;32591;48.102;11.772;2022-11-20T08:50:18;6.13;;;2.00;;
46116;SDS011;32591;48.102;11.772;2022-11-20T08:52:45;3.40;;;2.28;;
46116;SDS011;32591;48.102;11.772;2022-11-20T08:55:12;3.28;;;1.83;;
46116;SDS011;32591;48.102;11.772;2022-11-20T08:57:41;3.92;;;2.17;;
46116;SDS011;32591;48.102;11.772;2022-11-20T09:00:09;3.00;;;1.90;;
46116;SDS011;32591;48.102;11.772;2022-11-20T09:02:38;3.53;;;1.85;;
46116;SDS011;32591;48.102;11.772;2022-11-20T09:05:05;3.67;;;1.90;;
46116;SDS011;32591;48.102;11.772;2022-11-20T09:07:32;4.55;;;1.80;;
46116;SDS011;32591;48.102;11.772;2022-11-20T09:09:59;3.83;;;1.90;;
46116;SDS011;32591;48.102;11.772;2022-11-20T09:14:54;2.72;;;1.60;;
46116;SDS011;32591;48.102;11.772;2022-11-20T09:17:21;2.50;;;1.70;;
46116;SDS011;32591;48.102;11.772;2022-11-20T09:19:48;3.75;;;1.90;;
46116;SDS011;32591;48.102;11.772;2022-11-20T09:22:15;3.25;;;2.08;;
46116;SDS011;32591;48.102;11.772;2022-11-20T09:27:09;4.18;;;2.00;;
46116;SDS011;32591;48.102;11.772;2022-11-20T09:29:36;6.18;;;1.50;;
46116;SDS011;32591;48.102;11.772;2022-11-20T09:32:04;2.72;;;1.55;;
46116;SDS011;32591;48.102;11.772;2022-11-20T09:34:31;3.28;;;1.80;;
46116;SDS011;32591;48.102;11.772;2022-11-20T09:36:58;3.20;;;1.40;;
46116;SDS011;32591;48.102;11.772;2022-11-20T09:39:25;1.98;;;1.40;;
46116;SDS011;32591;48.102;11.772;2022-11-20T09:41:59;2.75;;;2.00;;
46116;SDS011;32591;48.102;11.772;2022-11-20T09:44:47;3.58;;;1.77;;
46116;SDS011;32591;48.102;11.772;2022-11-20T09:47:32;2.72;;;1.80;;
46116;SDS011;32591;48.102;11.772;2022-11-20T09:50:19;1.95;;;1.25;;
46116;SDS011;32591;48.102;11.772;2022-11-20T09:52:59;4.25;;;1.55;;
46116;SDS011;32591;48.102;11.772;2022-11-20T09:55:38;2.85;;;1.42;;
46116;SDS011;32591;48.102;11.772;2022-11-20T09:58:06;2.30;;;1.27;;
46116;SDS011;32591;48.102;11.772;2022-11-20T10:00:41;3.60;;;1.40;;
46116;SDS011;32591;48.102;11.772;2022-11-20T10:03:13;3.58;;;2.17;;
46116;SDS011;32591;48.102;11.772;2022-11-20T10:05:47;2.58;;;1.35;;
46116;SDS011;32591;48.102;11.772;2022-11-20T10:08:18;4.03;;;1.60;;
46116;SDS011;32591;48.102;11.772;2022-11-20T10:10:49;1.98;;;1.33;;
46116;SDS011;32591;48.102;11.772;2022-11-20T10:13:27;2.67;;;1.23;;
46116;SDS011;32591;48.102;11.772;2022-11-20T10:16:12;2.60;;;1.45;;
46116;SDS011;32591;48.102;11.772;2022-11-20T10:18:57;3.08;;;1.33;;
46116;SDS011;32591;48.102;11.772;2022-11-20T10:21:38;1.45;;;1.00;;
46116;SDS011;32591;48.102;11.772;2022-11-20T10:24:34;2.28;;;1.30;;
46116;SDS011;32591;48.102;11.772;2022-11-20T10:27:15;1.25;;;0.90;;
46116;SDS011;32591;48.102;11.772;2022-11-20T10:30:07;2.85;;;1.35;;
46116;SDS011;32591;48.102;11.772;2022-11-20T10:32:38;6.50;;;1.50;;
46116;SDS011;32591;48.102;11.772;2022-11-20T10:35:21;2.72;;;1.50;;
46116;SDS011;32591;48.102;11.772;2022-11-20T10:37:54;1.00;;;0.90;;
46116;SDS011;32591;48.102;11.772;2022-11-20T10:40:27;1.52;;;0.90;;
46116;SDS011;32591;48.102;11.772;2022-11-20T10:43:02;2.42;;;1.10;;
46116;SDS011;32591;48.102;11.772;2022-11-20T10:45:44;2.30;;;1.17;;
46116;SDS011;32591;48.102;11.772;2022-11-20T10:48:19;1.85;;;1.10;;
46116;SDS011;32591;48.102;11.772;2022-11-20T10:53:53;3.70;;;1.40;;
46116;SDS011;32591;48.102;11.772;2022-11-20T10:56:28;1.25;;;1.00;;
46116;SDS011;32591;48.102;11.772;2022-11-20T10:59:11;2.47;;;1.00;;
46116;SDS011;32591;48.102;11.772;2022-11-20T11:02:16;2.38;;;1.27;;
46116;SDS011;32591;48.102;11.772;2022-11-20T11:04:46;2.00;;;1.10;;
46116;SDS011;32591;48.102;11.772;2022-11-20T11:07:16;2.15;;;1.00;;
46116;SDS011;32591;48.102;11.772;2022-11-20T11:09:48;2.78;;;1.23;;
46116;SDS011;32591;48.102;11.772;2022-11-20T11:12:17;1.75;;;1.27;;
46116;SDS011;32591;48.102;11.772;2022-11-20T11:14:46;1.02;;;0.70;;
46116;SDS011;32591;48.102;11.772;2022-11-20T11:17:22;1.98;;;0.82;;
46116;SDS011;32591;48.102;11.772;2022-11-20T11:19:57;2.45;;;0.98;;
46116;SDS011;32591;48.102;11.772;2022-11-20T11:22:27;4.35;;;1.48;;
46116;SDS011;32591;48.102;11.772;2022-11-20T11:24:56;1.75;;;1.17;;
46116;SDS011;32591;48.102;11.772;2022-11-20T11:27:23;2.40;;;1.30;;
46116;SDS011;32591;48.102;11.772;2022-11-20T11:29:50;2.78;;;1.20;;
46116;SDS011;32591;48.102;11.772;2022-11-20T11:32:38;3.17;;;1.92;;
46116;SDS011;32591;48.102;11.772;2022-11-20T11:35:05;3.00;;;1.73;;
46116;SDS011;32591;48.102;11.772;2022-11-20T11:37:47;2.53;;;1.67;;
46116;SDS011;32591;48.102;11.772;2022-11-20T11:40:16;3.40;;;1.30;;
46116;SDS011;32591;48.102;11.772;2022-11-20T11:42:46;2.63;;;1.20;;
46116;SDS011;32591;48.102;11.772;2022-11-20T11:45:20;2.38;;;1.10;;
46116;SDS011;32591;48.102;11.772;2022-11-20T11:47:47;3.45;;;1.70;;
46116;SDS011;32591;48.102;11.772;2022-11-20T11:50:16;2.85;;;1.38;;
46116;SDS011;32591;48.102;11.772;2022-11-20T11:52:51;2.53;;;1.30;;
46116;SDS011;32591;48.102;11.772;2022-11-20T11:55:31;2.33;;;1.25;;
46116;SDS011;32591;48.102;11.772;2022-11-20T11:58:06;5.20;;;2.40;;
46116;SDS011;32591;48.102;11.772;2022-11-20T12:00:45;4.28;;;2.63;;
46116;SDS011;32591;48.102;11.772;2022-11-20T12:03:21;2.55;;;1.60;;
46116;SDS011;32591;48.102;11.772;2022-11-20T12:05:55;2.45;;;1.60;;
46116;SDS011;32591;48.102;11.772;2022-11-20T12:08:29;1.60;;;1.00;;
46116;SDS011;32591;48.102;11.772;2022-11-20T12:11:06;5.32;;;2.03;;
46116;SDS011;32591;48.102;11.772;2022-11-20T12:13:44;1.92;;;1.30;;
46116;SDS011;32591;48.102;11.772;2022-11-20T12:16:19;2.35;;;1.30;;
46116;SDS011;32591;48.102;11.772;2022-11-20T12:18:48;1.88;;;1.25;;
46116;SDS011;32591;48.102;11.772;2022-11-20T12:21:21;1.70;;;1.10;;
46116;SDS011;32591;48.102;11.772;2022-11-20T12:24:09;2.47;;;1.33;;
46116;SDS011;32591;48.102;11.772;2022-11-20T12:27:00;1.80;;;1.20;;
46116;SDS011;32591;48.102;11.772;2022-11-20T12:29:43;2.90;;;1.15;;
46116;SDS011;32591;48.102;11.772;2022-11-20T12:32:27;4.72;;;1.83;;
46116;SDS011;32591;48.102;11.772;2022-11-20T12:35:25;3.28;;;1.67;;
46116;SDS011;32591;48.102;11.772;2022-11-20T12:38:08;1.77;;;1.52;;
46116;SDS011;32591;48.102;11.772;2022-11-20T12:41:00;3.15;;;1.73;;
46116;SDS011;32591;48.102;11.772;2022-11-20T12:43:39;2.70;;;1.67;;
46116;SDS011;32591;48.102;11.772;2022-11-20T12:46:42;2.85;;;1.90;;
46116;SDS011;32591;48.102;11.772;2022-11-20T12:49:20;2.58;;;1.75;;
46116;SDS011;32591;48.102;11.772;2022-11-20T12:52:02;2.22;;;1.33;;
46116;SDS011;32591;48.102;11.772;2022-11-20T12:54:46;2.83;;;1.08;;
46116;SDS011;32591;48.102;11.772;2022-11-20T12:57:52;2.80;;;1.80;;
46116;SDS011;32591;48.102;11.772;2022-11-20T13:00:23;2.05;;;1.40;;
46116;SDS011;32591;48.102;11.772;2022-11-20T13:03:05;2.47;;;1.80;;
46116;SDS011;32591;48.102;11.772;2022-11-20T13:06:02;2.65;;;1.55;;
46116;SDS011;32591;48.102;11.772;2022-11-20T13:08:38;2.10;;;1.30;;
46116;SDS011;32591;48.102;11.772;2022-11-20T13:11:11;2.72;;;1.88;;
46116;SDS011;32591;48.102;11.772;2022-11-20T13:13:50;3.50;;;1.77;;
46116;SDS011;32591;48.102;11.772;2022-11-20T13:16:36;2.90;;;1.40;;
46116;SDS011;32591;48.102;11.772;2022-11-20T13:19:11;2.10;;;1.30;;
46116;SDS011;32591;48.102;11.772;2022-11-20T13:21:43;2.03;;;1.40;;
46116;SDS011;32591;48.102;11.772;2022-11-20T13:24:21;2.55;;;1.52;;
46116;SDS011;32591;48.102;11.772;2022-11-20T13:27:02;2.00;;;1.40;;
46116;SDS011;32591;48.102;11.772;2022-11-20T13:29:33;2.17;;;1.33;;
46116;SDS011;32591;48.102;11.772;2022-11-20T13:32:02;2.80;;;1.70;;
46116;SDS011;32591;48.102;11.772;2022-11-20T13:34:32;2.40;;;1.60;;
46116;SDS011;32591;48.102;11.772;2022-11-20T13:37:01;2.33;;;1.50;;
46116;SDS011;32591;48.102;11.772;2022-11-20T13:39:29;2.22;;;1.20;;
46116;SDS011;32591;48.102;11.772;2022-11-20T13:41:59;3.63;;;1.50;;
46116;SDS011;32591;48.102;11.772;2022-11-20T13:44:29;1.58;;;1.20;;
46116;SDS011;32591;48.102;11.772;2022-11-20T13:47:03;2.30;;;1.50;;
46116;SDS011;32591;48.102;11.772;2022-11-20T13:49:32;2.55;;;1.60;;
46116;SDS011;32591;48.102;11.772;2022-11-20T13:52:04;3.45;;;1.50;;
46116;SDS011;32591;48.102;11.772;2022-11-20T13:55:00;2.47;;;1.85;;
46116;SDS011;32591;48.102;11.772;2022-11-20T13:57:44;1.40;;;0.95;;
46116;SDS011;32591;48.102;11.772;2022-11-20T14:00:27;3.10;;;1.45;;
46116;SDS011;32591;48.102;11.772;2022-11-20T14:03:07;2.75;;;1.90;;
46116;SDS011;32591;48.102;11.772;2022-11-20T14:05:45;3.60;;;1.80;;
46116;SDS011;32591;48.102;11.772;2022-11-20T14:08:20;3.08;;;1.55;;
46116;SDS011;32591;48.102;11.772;2022-11-20T14:11:06;4.50;;;2.03;;
46116;SDS011;32591;48.102;11.772;2022-11-20T14:13:55;3.22;;;1.58;;
46116;SDS011;32591;48.102;11.772;2022-11-20T14:16:27;2.95;;;1.58;;
46116;SDS011;32591;48.102;11.772;2022-11-20T14:18:56;2.20;;;1.52;;
46116;SDS011;32591;48.102;11.772;2022-11-20T14:21:49;3.80;;;1.40;;
46116;SDS011;32591;48.102;11.772;2022-11-20T14:24:20;2.60;;;1.30;;
46116;SDS011;32591;48.102;11.772;2022-11-20T14:26:49;2.65;;;1.77;;
46116;SDS011;32591;48.102;11.772;2022-11-20T14:29:17;3.13;;;1.75;;
46116;SDS011;32591;48.102;11.772;2022-11-20T14:31:50;2.85;;;1.65;;
46116;SDS011;32591;48.102;11.772;2022-11-20T14:34:21;3.80;;;1.70;;
46116;SDS011;32591;48.102;11.772;2022-11-20T14:36:52;3.90;;;1.83;;
46116;SDS011;32591;48.102;11.772;2022-11-20T14:39:25;4.13;;;2.03;;
46116;SDS011;32591;48.102;11.772;2022-11-20T14:41:57;3.83;;;1.63;;
46116;SDS011;32591;48.102;11.772;2022-11-20T14:44:25;3.38;;;1.85;;
46116;SDS011;32591;48.102;11.772;2022-11-20T14:46:57;4.65;;;1.80;;
46116;SDS011;32591;48.102;11.772;2022-11-20T14:49:26;4.25;;;2.45;;
46116;SDS011;32591;48.102;11.772;2022-11-20T14:52:00;3.00;;;2.05;;
46116;SDS011;32591;48.102;11.772;2022-11-20T14:54:29;4.70;;;2.28;;
46116;SDS011;32591;48.102;11.772;2022-11-20T14:56:57;2.72;;;1.60;;
46116;SDS011;32591;48.102;11.772;2022-11-20T14:59:27;3.55;;;1.63;;
46116;SDS011;32591;48.102;11.772;2022-11-20T15:01:59;2.20;;;1.42;;
46116;SDS011;32591;48.102;11.772;2022-11-20T15:04:28;2.33;;;1.65;;
46116;SDS011;32591;48.102;11.772;2022-11-20T15:06:55;2.42;;;1.10;;
46116;SDS011;32591;48.102;11.772;2022-11-20T15:09:25;2.53;;;1.52;;
46116;SDS011;32591;48.102;11.772;2022-11-20T15:11:53;1.73;;;1.10;;
46116;SDS011;32591;48.102;11.772;2022-11-20T15:14:22;1.85;;;1.30;;
46116;SDS011;32591;48.102;11.772;2022-11-20T15:16:50;3.42;;;1.13;;
46116;SDS011;32591;48.102;11.772;2022-11-20T15:19:20;1.05;;;0.80;;
46116;SDS011;32591;48.102;11.772;2022-11-20T15:21:49;1.90;;;0.93;;
46116;SDS011;32591;48.102;11.772;2022-11-20T15:24:17;1.60;;;1.20;;
46116;SDS011;32591;48.102;11.772;2022-11-20T15:26:44;1.08;;;0.60;;
46116;SDS011;32591;48.102;11.772;2022-11-20T15:29:13;0.60;;;0.60;;
46116;SDS011;32591;48.102;11.772;2022-11-20T15:31:43;0.82;;;0.60;;
46116;SDS011;32591;48.102;11.772;2022-11-20T15:34:11;2.13;;;1.00;;